sensor_id;sensor_type;location;lat;lon;timestamp;pressure;altitude;pressure_sealevel;temperature;humidity
70323;BME280;57735;56.264;43.898;2023-03-21T00:01:53;100527.22;;;3.10;78.44
70323;BME280;57735;56.264;43.898;2023-03-21T00:04:24;100530.03;;;3.07;78.44
70323;BME280;57735;56.264;43.898;2023-03-21T00:06:55;100532.97;;;3.03;78.65
70323;BME280;57735;56.264;43.898;2023-03-21T00:09:28;100530.47;;;3.01;78.79
70323;BME280;57735;56.264;43.898;2023-03-21T00:11:59;100527.09;;;2.99;79.01
70323;BME280;57735;56.264;43.898;2023-03-21T00:14:30;100522.56;;;3.01;79.02
70323;BME280;57735;56.264;43.898;2023-03-21T00:17:01;100527.84;;;3.01;78.98
70323;BME280;57735;56.264;43.898;2023-03-21T00:19:32;100528.56;;;3.03;78.95
70323;BME280;57735;56.264;43.898;2023-03-21T00:22:07;100512.75;;;3.03;78.96
70323;BME280;57735;56.264;43.898;2023-03-21T00:24:37;100512.75;;;3.03;78.97
70323;BME280;57735;56.264;43.898;2023-03-21T00:27:08;100513.50;;;3.05;79.21
70323;BME280;57735;56.264;43.898;2023-03-21T00:29:39;100506.34;;;3.07;79.00
70323;BME280;57735;56.264;43.898;2023-03-21T00:32:09;100502.75;;;3.08;78.99
70323;BME280;57735;56.264;43.898;2023-03-21T00:34:45;100500.88;;;3.10;78.98
70323;BME280;57735;56.264;43.898;2023-03-21T00:37:16;100493.72;;;3.12;78.79
70323;BME280;57735;56.264;43.898;2023-03-21T00:39:48;100497.09;;;3.14;78.71
70323;BME280;57735;56.264;43.898;2023-03-21T00:42:18;100497.28;;;3.11;78.59
70323;BME280;57735;56.264;43.898;2023-03-21T00:44:49;100507.19;;;3.08;78.54
70323;BME280;57735;56.264;43.898;2023-03-21T00:47:19;100503.72;;;3.07;78.68
70323;BME280;57735;56.264;43.898;2023-03-21T00:49:50;100502.88;;;3.07;78.70
70323;BME280;57735;56.264;43.898;2023-03-21T00:52:21;100503.72;;;3.07;78.68
70323;BME280;57735;56.264;43.898;2023-03-21T00:54:51;100497.69;;;3.05;78.68
70323;BME280;57735;56.264;43.898;2023-03-21T00:57:24;100488.22;;;3.03;78.77
70323;BME280;57735;56.264;43.898;2023-03-21T00:59:55;100496.44;;;2.98;78.73
70323;BME280;57735;56.264;43.898;2023-03-21T01:02:27;100501.91;;;2.95;78.73
70323;BME280;57735;56.264;43.898;2023-03-21T01:04:58;100506.63;;;2.90;78.88
70323;BME280;57735;56.264;43.898;2023-03-21T01:07:28;100490.41;;;2.84;78.82
70323;BME280;57735;56.264;43.898;2023-03-21T01:10:00;100484.41;;;2.82;79.06
70323;BME280;57735;56.264;43.898;2023-03-21T01:12:30;100479.44;;;2.77;79.26
70323;BME280;57735;56.264;43.898;2023-03-21T01:15:01;100489.13;;;2.76;79.52
70323;BME280;57735;56.264;43.898;2023-03-21T01:17:32;100482.06;;;2.77;79.56
70323;BME280;57735;56.264;43.898;2023-03-21T01:20:03;100483.75;;;2.78;79.74
70323;BME280;57735;56.264;43.898;2023-03-21T01:22:35;100479.22;;;2.80;79.57
70323;BME280;57735;56.264;43.898;2023-03-21T01:25:06;100479.97;;;2.82;79.62
70323;BME280;57735;56.264;43.898;2023-03-21T01:27:36;100472.94;;;2.83;79.59
70323;BME280;57735;56.264;43.898;2023-03-21T01:30:10;100477.25;;;2.84;79.61
70323;BME280;57735;56.264;43.898;2023-03-21T01:32:40;100460.38;;;2.86;79.56
70323;BME280;57735;56.264;43.898;2023-03-21T01:35:11;100465.44;;;2.89;79.54
70323;BME280;57735;56.264;43.898;2023-03-21T01:37:41;100464.31;;;2.93;79.58
70323;BME280;57735;56.264;43.898;2023-03-21T01:40:15;100468.53;;;2.96;79.37
70323;BME280;57735;56.264;43.898;2023-03-21T01:42:46;100466.72;;;2.96;79.18
70323;BME280;57735;56.264;43.898;2023-03-21T01:48:06;100457.88;;;2.97;79.25
70323;BME280;57735;56.264;43.898;2023-03-21T01:50:36;100457.88;;;2.97;79.13
70323;BME280;57735;56.264;43.898;2023-03-21T01:53:08;100454.72;;;2.92;79.27
70323;BME280;57735;56.264;43.898;2023-03-21T01:55:40;100441.84;;;2.88;79.41
70323;BME280;57735;56.264;43.898;2023-03-21T01:58:10;100438.47;;;2.86;79.56
70323;BME280;57735;56.264;43.898;2023-03-21T02:00:43;100441.34;;;2.83;79.73
70323;BME280;57735;56.264;43.898;2023-03-21T02:03:14;100441.25;;;2.84;79.84
70323;BME280;57735;56.264;43.898;2023-03-21T02:05:55;100435.00;;;2.85;79.79
70323;BME280;57735;56.264;43.898;2023-03-21T02:08:30;100431.31;;;2.88;79.62
70323;BME280;57735;56.264;43.898;2023-03-21T02:11:01;100429.63;;;2.87;79.88
70323;BME280;57735;56.264;43.898;2023-03-21T02:13:32;100430.28;;;2.90;79.92
70323;BME280;57735;56.264;43.898;2023-03-21T02:16:13;100427.44;;;2.93;79.51
70323;BME280;57735;56.264;43.898;2023-03-21T02:21:41;100416.91;;;2.93;79.37
70323;BME280;57735;56.264;43.898;2023-03-21T02:24:35;100416.81;;;2.95;79.58
70323;BME280;57735;56.264;43.898;2023-03-21T02:29:50;100407.31;;;2.92;79.27
70323;BME280;57735;56.264;43.898;2023-03-21T02:35:40;100409.97;;;2.92;79.35
70323;BME280;57735;56.264;43.898;2023-03-21T02:38:17;100399.31;;;2.94;79.36
70323;BME280;57735;56.264;43.898;2023-03-21T02:40:52;100402.06;;;2.92;79.44
70323;BME280;57735;56.264;43.898;2023-03-21T02:46:13;100403.09;;;2.90;79.60
70323;BME280;57735;56.264;43.898;2023-03-21T02:48:51;100401.22;;;2.92;79.68
70323;BME280;57735;56.264;43.898;2023-03-21T02:51:22;100390.47;;;2.95;79.57
70323;BME280;57735;56.264;43.898;2023-03-21T02:54:03;100397.53;;;2.94;79.50
70323;BME280;57735;56.264;43.898;2023-03-21T02:56:34;100388.69;;;2.95;79.24
70323;BME280;57735;56.264;43.898;2023-03-21T02:59:06;100391.97;;;2.99;79.22
70323;BME280;57735;56.264;43.898;2023-03-21T03:01:39;100378.06;;;2.97;79.24
70323;BME280;57735;56.264;43.898;2023-03-21T03:04:22;100382.47;;;2.96;79.40
70323;BME280;57735;56.264;43.898;2023-03-21T03:09:47;100380.16;;;2.92;79.58
70323;BME280;57735;56.264;43.898;2023-03-21T03:12:30;100381.84;;;2.93;79.46
70323;BME280;57735;56.264;43.898;2023-03-21T03:17:50;100375.72;;;2.92;79.43
70323;BME280;57735;56.264;43.898;2023-03-21T03:25:30;100378.16;;;2.95;79.58
70323;BME280;57735;56.264;43.898;2023-03-21T03:28:02;100385.22;;;2.95;79.68
70323;BME280;57735;56.264;43.898;2023-03-21T03:30:35;100379.94;;;2.95;79.68
70323;BME280;57735;56.264;43.898;2023-03-21T03:33:06;100381.00;;;2.92;79.64
70323;BME280;57735;56.264;43.898;2023-03-21T03:35:38;100374.16;;;2.90;79.55
70323;BME280;57735;56.264;43.898;2023-03-21T03:38:08;100377.94;;;2.86;79.78
70323;BME280;57735;56.264;43.898;2023-03-21T03:40:41;100366.78;;;2.82;79.98
70323;BME280;57735;56.264;43.898;2023-03-21T03:43:16;100376.38;;;2.83;79.95
70323;BME280;57735;56.264;43.898;2023-03-21T03:45:49;100371.22;;;2.82;79.98
70323;BME280;57735;56.264;43.898;2023-03-21T03:49:22;100380.06;;;2.80;80.04
70323;BME280;57735;56.264;43.898;2023-03-21T03:51:42;100373.00;;;2.81;79.99
70323;BME280;57735;56.264;43.898;2023-03-21T03:54:14;100372.16;;;2.80;80.06
70323;BME280;57735;56.264;43.898;2023-03-21T03:56:48;100365.94;;;2.82;80.05
70323;BME280;57735;56.264;43.898;2023-03-21T03:59:19;100368.56;;;2.82;80.20
70323;BME280;57735;56.264;43.898;2023-03-21T04:01:53;100364.56;;;2.89;80.10
70323;BME280;57735;56.264;43.898;2023-03-21T04:04:23;100365.00;;;2.95;79.91
70323;BME280;57735;56.264;43.898;2023-03-21T04:06:58;100363.09;;;2.97;79.82
70323;BME280;57735;56.264;43.898;2023-03-21T04:09:29;100360.03;;;3.03;79.71
70323;BME280;57735;56.264;43.898;2023-03-21T04:12:00;100365.94;;;3.07;79.68
70323;BME280;57735;56.264;43.898;2023-03-21T04:14:30;100357.81;;;3.10;79.46
70323;BME280;57735;56.264;43.898;2023-03-21T04:17:01;100356.78;;;3.12;79.64
70323;BME280;57735;56.264;43.898;2023-03-21T04:19:31;100365.63;;;3.11;79.44
70323;BME280;57735;56.264;43.898;2023-03-21T04:22:04;100367.09;;;3.15;79.51
70323;BME280;57735;56.264;43.898;2023-03-21T04:24:37;100356.22;;;3.20;79.30
70323;BME280;57735;56.264;43.898;2023-03-21T04:27:08;100361.38;;;3.22;79.14
70323;BME280;57735;56.264;43.898;2023-03-21T04:29:39;100350.00;;;3.21;79.06
70323;BME280;57735;56.264;43.898;2023-03-21T04:32:09;100355.28;;;3.21;79.04
70323;BME280;57735;56.264;43.898;2023-03-21T04:34:45;100347.25;;;3.23;79.11
70323;BME280;57735;56.264;43.898;2023-03-21T04:37:23;100350.75;;;3.23;78.85
70323;BME280;57735;56.264;43.898;2023-03-21T04:39:53;100341.25;;;3.21;78.78
70323;BME280;57735;56.264;43.898;2023-03-21T04:42:24;100338.88;;;3.18;78.90
70323;BME280;57735;56.264;43.898;2023-03-21T04:44:54;100339.06;;;3.14;79.14
70323;BME280;57735;56.264;43.898;2023-03-21T04:47:25;100336.94;;;3.20;79.23
70323;BME280;57735;56.264;43.898;2023-03-21T04:49:56;100337.78;;;3.20;78.99
70323;BME280;57735;56.264;43.898;2023-03-21T04:52:26;100333.47;;;3.19;78.98
70323;BME280;57735;56.264;43.898;2023-03-21T04:54:57;100332.41;;;3.22;79.04
70323;BME280;57735;56.264;43.898;2023-03-21T04:57:27;100329.66;;;3.23;78.97
70323;BME280;57735;56.264;43.898;2023-03-21T04:59:58;100326.72;;;3.28;79.06
70323;BME280;57735;56.264;43.898;2023-03-21T05:02:28;100321.25;;;3.31;78.98
70323;BME280;57735;56.264;43.898;2023-03-21T05:04:59;100333.34;;;3.33;78.87
70323;BME280;57735;56.264;43.898;2023-03-21T05:07:32;100330.72;;;3.33;78.73
70323;BME280;57735;56.264;43.898;2023-03-21T05:10:03;100337.88;;;3.31;78.75
70323;BME280;57735;56.264;43.898;2023-03-21T05:12:34;100334.41;;;3.31;78.84
70323;BME280;57735;56.264;43.898;2023-03-21T05:15:05;100319.56;;;3.30;78.72
70323;BME280;57735;56.264;43.898;2023-03-21T05:17:35;100323.03;;;3.30;78.74
70323;BME280;57735;56.264;43.898;2023-03-21T05:20:06;100318.50;;;3.32;78.92
70323;BME280;57735;56.264;43.898;2023-03-21T05:22:38;100319.34;;;3.33;78.73
70323;BME280;57735;56.264;43.898;2023-03-21T05:25:09;100317.75;;;3.30;78.69
70323;BME280;57735;56.264;43.898;2023-03-21T05:27:43;100310.81;;;3.29;78.72
70323;BME280;57735;56.264;43.898;2023-03-21T05:30:23;100313.56;;;3.28;78.62
70323;BME280;57735;56.264;43.898;2023-03-21T05:32:53;100314.50;;;3.27;78.95
70323;BME280;57735;56.264;43.898;2023-03-21T05:35:24;100313.34;;;3.31;78.95
70323;BME280;57735;56.264;43.898;2023-03-21T05:37:57;100313.22;;;3.32;78.90
70323;BME280;57735;56.264;43.898;2023-03-21T05:40:28;100312.28;;;3.33;78.84
70323;BME280;57735;56.264;43.898;2023-03-21T05:42:58;100305.22;;;3.34;78.88
70323;BME280;57735;56.264;43.898;2023-03-21T05:45:29;100308.56;;;3.36;78.95
70323;BME280;57735;56.264;43.898;2023-03-21T05:48:02;100309.28;;;3.38;78.74
70323;BME280;57735;56.264;43.898;2023-03-21T05:50:33;100310.03;;;3.40;78.71
70323;BME280;57735;56.264;43.898;2023-03-21T05:53:03;100309.09;;;3.41;78.53
70323;BME280;57735;56.264;43.898;2023-03-21T05:55:34;100300.97;;;3.44;78.52
70323;BME280;57735;56.264;43.898;2023-03-21T05:58:07;100301.47;;;3.49;78.25
70323;BME280;57735;56.264;43.898;2023-03-21T06:00:37;100281.13;;;3.51;78.30
70323;BME280;57735;56.264;43.898;2023-03-21T06:03:11;100290.69;;;3.52;78.30
70323;BME280;57735;56.264;43.898;2023-03-21T06:05:41;100281.84;;;3.53;78.13
70323;BME280;57735;56.264;43.898;2023-03-21T06:08:12;100286.28;;;3.53;78.34
70323;BME280;57735;56.264;43.898;2023-03-21T06:10:42;100279.94;;;3.55;78.50
70323;BME280;57735;56.264;43.898;2023-03-21T06:13:13;100280.56;;;3.59;78.22
70323;BME280;57735;56.264;43.898;2023-03-21T06:15:45;100282.25;;;3.60;78.21
70323;BME280;57735;56.264;43.898;2023-03-21T06:18:18;100274.22;;;3.61;78.19
70323;BME280;57735;56.264;43.898;2023-03-21T06:20:49;100279.28;;;3.64;78.25
70323;BME280;57735;56.264;43.898;2023-03-21T06:23:19;100272.53;;;3.60;78.32
70323;BME280;57735;56.264;43.898;2023-03-21T06:25:50;100267.16;;;3.62;78.27
70323;BME280;57735;56.264;43.898;2023-03-21T06:28:23;100269.81;;;3.62;78.18
70323;BME280;57735;56.264;43.898;2023-03-21T06:30:53;100253.16;;;3.61;78.17
70323;BME280;57735;56.264;43.898;2023-03-21T06:33:24;100252.53;;;3.58;78.23
70323;BME280;57735;56.264;43.898;2023-03-21T06:35:56;100254.09;;;3.60;78.37
70323;BME280;57735;56.264;43.898;2023-03-21T06:38:27;100251.34;;;3.62;78.30
70323;BME280;57735;56.264;43.898;2023-03-21T06:40:57;100240.09;;;3.60;78.15
70323;BME280;57735;56.264;43.898;2023-03-21T06:43:28;100242.81;;;3.58;78.17
70323;BME280;57735;56.264;43.898;2023-03-21T06:45:58;100230.38;;;3.60;78.01
70323;BME280;57735;56.264;43.898;2023-03-21T06:48:29;100231.84;;;3.64;78.20
70323;BME280;57735;56.264;43.898;2023-03-21T06:51:00;100235.09;;;3.68;78.24
70323;BME280;57735;56.264;43.898;2023-03-21T06:53:31;100231.16;;;3.73;78.03
70323;BME280;57735;56.264;43.898;2023-03-21T06:56:02;100236.19;;;3.76;78.17
70323;BME280;57735;56.264;43.898;2023-03-21T06:58:33;100221.72;;;3.82;77.96
70323;BME280;57735;56.264;43.898;2023-03-21T07:01:03;100224.94;;;3.85;77.89
70323;BME280;57735;56.264;43.898;2023-03-21T07:03:34;100227.38;;;3.89;77.78
70323;BME280;57735;56.264;43.898;2023-03-21T07:06:10;100226.41;;;3.90;77.80
70323;BME280;57735;56.264;43.898;2023-03-21T07:08:43;100231.47;;;3.93;77.69
70323;BME280;57735;56.264;43.898;2023-03-21T07:11:14;100225.97;;;3.96;77.70
70323;BME280;57735;56.264;43.898;2023-03-21T07:13:46;100211.09;;;3.95;77.63
70323;BME280;57735;56.264;43.898;2023-03-21T07:16:18;100210.97;;;3.96;77.82
70323;BME280;57735;56.264;43.898;2023-03-21T07:18:50;100198.41;;;4.00;77.76
70323;BME280;57735;56.264;43.898;2023-03-21T07:21:21;100212.31;;;4.02;77.47
70323;BME280;57735;56.264;43.898;2023-03-21T07:23:54;100206.31;;;4.00;77.28
70323;BME280;57735;56.264;43.898;2023-03-21T07:26:32;100191.69;;;3.96;77.36
70323;BME280;57735;56.264;43.898;2023-03-21T07:29:02;100186.63;;;3.93;77.57
70323;BME280;57735;56.264;43.898;2023-03-21T07:31:33;100193.25;;;3.98;77.56
70323;BME280;57735;56.264;43.898;2023-03-21T07:34:04;100183.66;;;3.97;77.46
70323;BME280;57735;56.264;43.898;2023-03-21T07:36:35;100189.78;;;3.98;77.67
70323;BME280;57735;56.264;43.898;2023-03-21T07:39:07;100187.97;;;3.98;77.72
70323;BME280;57735;56.264;43.898;2023-03-21T07:41:40;100185.44;;;3.97;77.65
70323;BME280;57735;56.264;43.898;2023-03-21T07:44:11;100180.78;;;4.00;77.79
70323;BME280;57735;56.264;43.898;2023-03-21T07:46:41;100184.28;;;4.01;77.72
70323;BME280;57735;56.264;43.898;2023-03-21T07:49:12;100181.38;;;4.04;77.65
70323;BME280;57735;56.264;43.898;2023-03-21T07:51:43;100176.09;;;4.04;77.69
70323;BME280;57735;56.264;43.898;2023-03-21T07:54:15;100163.63;;;4.06;77.70
70323;BME280;57735;56.264;43.898;2023-03-21T07:56:48;100161.28;;;4.14;77.68
70323;BME280;57735;56.264;43.898;2023-03-21T07:59:19;100155.50;;;4.20;77.66
70323;BME280;57735;56.264;43.898;2023-03-21T08:01:50;100162.22;;;4.24;77.57
70323;BME280;57735;56.264;43.898;2023-03-21T08:04:20;100166.53;;;4.25;77.50
70323;BME280;57735;56.264;43.898;2023-03-21T08:06:52;100164.75;;;4.26;77.56
70323;BME280;57735;56.264;43.898;2023-03-21T08:09:23;100158.53;;;4.27;77.31
70323;BME280;57735;56.264;43.898;2023-03-21T08:11:56;100146.41;;;4.24;77.48
70323;BME280;57735;56.264;43.898;2023-03-21T08:14:32;100149.28;;;4.32;77.39
70323;BME280;57735;56.264;43.898;2023-03-21T08:17:04;100140.44;;;4.33;77.18
70323;BME280;57735;56.264;43.898;2023-03-21T08:19:35;100138.13;;;4.40;77.31
70323;BME280;57735;56.264;43.898;2023-03-21T08:22:06;100137.28;;;4.39;77.23
70323;BME280;57735;56.264;43.898;2023-03-21T08:24:37;100140.75;;;4.40;77.35
70323;BME280;57735;56.264;43.898;2023-03-21T08:27:08;100147.22;;;4.36;77.32
70323;BME280;57735;56.264;43.898;2023-03-21T08:29:40;100146.44;;;4.35;77.41
70323;BME280;57735;56.264;43.898;2023-03-21T08:32:11;100148.34;;;4.33;77.79
70323;BME280;57735;56.264;43.898;2023-03-21T08:34:46;100141.38;;;4.32;77.53
70323;BME280;57735;56.264;43.898;2023-03-21T08:37:17;100143.06;;;4.33;77.80
70323;BME280;57735;56.264;43.898;2023-03-21T08:39:47;100137.06;;;4.31;77.71
70323;BME280;57735;56.264;43.898;2023-03-21T08:42:18;100120.38;;;4.31;77.96
70323;BME280;57735;56.264;43.898;2023-03-21T08:44:49;100138.47;;;4.24;77.95
70323;BME280;57735;56.264;43.898;2023-03-21T08:47:20;100129.28;;;4.18;78.20
70323;BME280;57735;56.264;43.898;2023-03-21T08:49:51;100130.47;;;4.14;78.43
70323;BME280;57735;56.264;43.898;2023-03-21T08:52:21;100130.47;;;4.14;78.51
70323;BME280;57735;56.264;43.898;2023-03-21T08:54:52;100124.34;;;4.14;78.46
70323;BME280;57735;56.264;43.898;2023-03-21T08:57:23;100123.84;;;4.20;78.48
70323;BME280;57735;56.264;43.898;2023-03-21T08:59:56;100122.53;;;4.26;78.54
70323;BME280;57735;56.264;43.898;2023-03-21T09:02:27;100122.91;;;4.32;78.32
70323;BME280;57735;56.264;43.898;2023-03-21T09:05:00;100113.78;;;4.36;78.46
70323;BME280;57735;56.264;43.898;2023-03-21T09:07:30;100106.81;;;4.46;78.46
70323;BME280;57735;56.264;43.898;2023-03-21T09:10:04;100108.28;;;4.50;78.13
70323;BME280;57735;56.264;43.898;2023-03-21T09:12:36;100103.44;;;4.55;77.96
70323;BME280;57735;56.264;43.898;2023-03-21T09:15:07;100090.25;;;4.55;77.93
70323;BME280;57735;56.264;43.898;2023-03-21T09:17:38;100093.00;;;4.54;77.99
70323;BME280;57735;56.264;43.898;2023-03-21T09:20:12;100094.56;;;4.56;78.03
70323;BME280;57735;56.264;43.898;2023-03-21T09:22:48;100082.56;;;4.64;77.98
70323;BME280;57735;56.264;43.898;2023-03-21T09:25:20;100087.09;;;4.73;77.68
70323;BME280;57735;56.264;43.898;2023-03-21T09:27:50;100081.94;;;4.82;77.40
70323;BME280;57735;56.264;43.898;2023-03-21T09:30:23;100067.47;;;4.98;77.45
70323;BME280;57735;56.264;43.898;2023-03-21T09:32:54;100074.97;;;5.13;77.20
70323;BME280;57735;56.264;43.898;2023-03-21T09:35:25;100069.44;;;5.37;76.85
70323;BME280;57735;56.264;43.898;2023-03-21T09:37:56;100070.53;;;5.55;76.35
70323;BME280;57735;56.264;43.898;2023-03-21T09:45:58;100068.66;;;5.88;74.51
70323;BME280;57735;56.264;43.898;2023-03-21T09:51:02;100066.66;;;5.80;74.42
70323;BME280;57735;56.264;43.898;2023-03-21T09:53:34;100064.25;;;5.68;74.39
70323;BME280;57735;56.264;43.898;2023-03-21T09:56:08;100057.03;;;5.49;75.07
70323;BME280;57735;56.264;43.898;2023-03-21T09:58:46;100059.19;;;5.44;75.30
70323;BME280;57735;56.264;43.898;2023-03-21T10:01:26;100055.13;;;5.40;75.40
70323;BME280;57735;56.264;43.898;2023-03-21T10:04:05;100071.53;;;5.34;75.73
70323;BME280;57735;56.264;43.898;2023-03-21T10:06:37;100057.63;;;5.20;76.03
70323;BME280;57735;56.264;43.898;2023-03-21T10:09:12;100057.84;;;5.29;76.18
70323;BME280;57735;56.264;43.898;2023-03-21T10:19:41;100062.69;;;4.91;77.03
70323;BME280;57735;56.264;43.898;2023-03-21T10:22:15;100058.16;;;4.82;77.39
70323;BME280;57735;56.264;43.898;2023-03-21T10:24:46;100054.56;;;4.72;77.69
70323;BME280;57735;56.264;43.898;2023-03-21T10:27:18;100055.22;;;4.65;77.98
70323;BME280;57735;56.264;43.898;2023-03-21T10:29:49;100059.06;;;4.61;78.06
70323;BME280;57735;56.264;43.898;2023-03-21T10:32:24;100053.28;;;4.55;78.24
70323;BME280;57735;56.264;43.898;2023-03-21T10:34:57;100050.91;;;4.52;78.51
70323;BME280;57735;56.264;43.898;2023-03-21T10:37:41;100055.97;;;4.44;78.89
70323;BME280;57735;56.264;43.898;2023-03-21T10:40:15;100056.31;;;4.40;79.24
70323;BME280;57735;56.264;43.898;2023-03-21T10:42:46;100049.38;;;4.39;79.51
70323;BME280;57735;56.264;43.898;2023-03-21T10:45:17;100060.16;;;4.36;79.56
70323;BME280;57735;56.264;43.898;2023-03-21T10:47:49;100056.84;;;4.34;79.66
70323;BME280;57735;56.264;43.898;2023-03-21T10:50:20;100048.19;;;4.32;80.14
70323;BME280;57735;56.264;43.898;2023-03-21T10:52:58;100051.44;;;4.24;80.36
70323;BME280;57735;56.264;43.898;2023-03-21T10:55:30;100045.66;;;4.19;80.52
70323;BME280;57735;56.264;43.898;2023-03-21T10:58:05;100050.59;;;4.12;80.74
70323;BME280;57735;56.264;43.898;2023-03-21T11:00:38;100042.81;;;4.11;81.08
70323;BME280;57735;56.264;43.898;2023-03-21T11:03:22;100044.59;;;4.10;81.29
70323;BME280;57735;56.264;43.898;2023-03-21T11:06:36;100037.66;;;4.09;81.42
70323;BME280;57735;56.264;43.898;2023-03-21T11:08:48;100041.25;;;4.08;81.46
70323;BME280;57735;56.264;43.898;2023-03-21T11:11:42;100029.25;;;4.04;81.65
70323;BME280;57735;56.264;43.898;2023-03-21T11:14:23;100030.09;;;4.05;81.88
70323;BME280;57735;56.264;43.898;2023-03-21T11:16:57;100028.28;;;4.05;81.88
70323;BME280;57735;56.264;43.898;2023-03-21T11:19:29;100030.94;;;4.05;82.02
70323;BME280;57735;56.264;43.898;2023-03-21T11:22:05;100029.97;;;4.06;82.07
70323;BME280;57735;56.264;43.898;2023-03-21T11:24:36;100031.66;;;4.07;82.20
70323;BME280;57735;56.264;43.898;2023-03-21T11:27:07;100026.03;;;4.12;82.00
70323;BME280;57735;56.264;43.898;2023-03-21T11:29:38;100019.78;;;4.13;81.64
70323;BME280;57735;56.264;43.898;2023-03-21T11:42:50;100010.22;;;4.01;81.45
70323;BME280;57735;56.264;43.898;2023-03-21T11:45:31;100019.81;;;4.02;81.24
70323;BME280;57735;56.264;43.898;2023-03-21T11:48:04;100010.22;;;4.01;80.75
70323;BME280;57735;56.264;43.898;2023-03-21T11:50:36;100015.34;;;4.02;80.71
70323;BME280;57735;56.264;43.898;2023-03-21T12:06:15;100014.78;;;3.99;80.12
70323;BME280;57735;56.264;43.898;2023-03-21T12:16:55;99998.22;;;3.85;80.29
70323;BME280;57735;56.264;43.898;2023-03-21T12:19:49;100002.78;;;3.83;80.53
70323;BME280;57735;56.264;43.898;2023-03-21T12:25:14;99998.47;;;3.82;80.50
70323;BME280;57735;56.264;43.898;2023-03-21T12:30:37;99997.75;;;3.80;80.61
70323;BME280;57735;56.264;43.898;2023-03-21T12:38:24;99999.06;;;3.75;80.85
70323;BME280;57735;56.264;43.898;2023-03-21T12:46:33;99990.44;;;3.73;80.62
70323;BME280;57735;56.264;43.898;2023-03-21T12:49:04;99986.22;;;3.70;80.75
70323;BME280;57735;56.264;43.898;2023-03-21T12:51:42;99990.81;;;3.68;80.54
70323;BME280;57735;56.264;43.898;2023-03-21T12:54:16;99991.50;;;3.70;80.57
70323;BME280;57735;56.264;43.898;2023-03-21T12:56:55;99983.88;;;3.67;80.46
70323;BME280;57735;56.264;43.898;2023-03-21T13:02:46;99976.91;;;3.66;80.41
70323;BME280;57735;56.264;43.898;2023-03-21T13:04:59;99983.13;;;3.65;80.61
70323;BME280;57735;56.264;43.898;2023-03-21T13:07:34;99989.47;;;3.63;80.51
70323;BME280;57735;56.264;43.898;2023-03-21T13:10:13;99992.22;;;3.61;80.62
70323;BME280;57735;56.264;43.898;2023-03-21T13:15:38;99997.00;;;3.56;80.97
70323;BME280;57735;56.264;43.898;2023-03-21T13:20:52;99995.81;;;3.49;81.17
70323;BME280;57735;56.264;43.898;2023-03-21T13:23:24;99989.84;;;3.47;81.30
70323;BME280;57735;56.264;43.898;2023-03-21T13:26:03;99993.41;;;3.46;81.29
70323;BME280;57735;56.264;43.898;2023-03-21T13:28:38;99998.81;;;3.44;81.40
70323;BME280;57735;56.264;43.898;2023-03-21T13:31:17;99989.09;;;3.45;81.55
70323;BME280;57735;56.264;43.898;2023-03-21T13:33:48;99985.53;;;3.46;81.78
70323;BME280;57735;56.264;43.898;2023-03-21T13:36:29;99990.91;;;3.44;81.66
70323;BME280;57735;56.264;43.898;2023-03-21T13:39:03;99988.50;;;3.41;81.94
70323;BME280;57735;56.264;43.898;2023-03-21T13:41:36;99985.13;;;3.39;82.05
70323;BME280;57735;56.264;43.898;2023-03-21T13:49:30;99979.75;;;3.41;82.17
70323;BME280;57735;56.264;43.898;2023-03-21T13:52:46;99988.16;;;3.46;82.26
70323;BME280;57735;56.264;43.898;2023-03-21T13:54:55;99991.84;;;3.43;81.84
70323;BME280;57735;56.264;43.898;2023-03-21T14:00:18;99986.25;;;3.48;81.84
70323;BME280;57735;56.264;43.898;2023-03-21T14:02:51;99995.09;;;3.47;81.58
70323;BME280;57735;56.264;43.898;2023-03-21T14:05:23;99995.00;;;3.48;81.52
70323;BME280;57735;56.264;43.898;2023-03-21T14:07:56;99986.25;;;3.48;81.38
70323;BME280;57735;56.264;43.898;2023-03-21T14:10:29;99989.09;;;3.45;81.50
70323;BME280;57735;56.264;43.898;2023-03-21T14:13:03;99984.06;;;3.42;81.45
70323;BME280;57735;56.264;43.898;2023-03-21T14:15:58;99979.16;;;3.37;81.55
70323;BME280;57735;56.264;43.898;2023-03-21T14:18:27;99979.03;;;3.39;81.64
70323;BME280;57735;56.264;43.898;2023-03-21T14:21:00;99979.97;;;3.38;81.24
70323;BME280;57735;56.264;43.898;2023-03-21T14:23:31;99971.25;;;3.37;81.27
70323;BME280;57735;56.264;43.898;2023-03-21T14:26:01;99982.72;;;3.36;80.98
70323;BME280;57735;56.264;43.898;2023-03-21T14:28:32;99975.44;;;3.29;80.98
70323;BME280;57735;56.264;43.898;2023-03-21T14:31:05;99982.72;;;3.25;81.24
70323;BME280;57735;56.264;43.898;2023-03-21T14:33:37;99982.72;;;3.25;81.17
70323;BME280;57735;56.264;43.898;2023-03-21T14:36:10;99974.94;;;3.24;81.03
70323;BME280;57735;56.264;43.898;2023-03-21T14:38:45;99984.50;;;3.13;81.12
70323;BME280;57735;56.264;43.898;2023-03-21T14:41:26;99988.31;;;3.09;81.55
70323;BME280;57735;56.264;43.898;2023-03-21T14:44:01;99984.13;;;3.07;81.53
70323;BME280;57735;56.264;43.898;2023-03-21T14:46:32;99985.19;;;3.04;81.64
70323;BME280;57735;56.264;43.898;2023-03-21T14:49:12;99990.44;;;3.04;81.75
70323;BME280;57735;56.264;43.898;2023-03-21T14:51:43;99983.50;;;3.03;81.66
70323;BME280;57735;56.264;43.898;2023-03-21T14:54:16;99992.13;;;3.05;81.72
70323;BME280;57735;56.264;43.898;2023-03-21T14:57:07;99987.47;;;3.09;81.79
70323;BME280;57735;56.264;43.898;2023-03-21T14:59:39;99984.13;;;3.07;81.47
70323;BME280;57735;56.264;43.898;2023-03-21T15:02:15;99995.72;;;3.04;81.38
70323;BME280;57735;56.264;43.898;2023-03-21T15:04:48;99993.19;;;3.03;81.36
70323;BME280;57735;56.264;43.898;2023-03-21T15:07:28;99995.72;;;3.04;81.46
70323;BME280;57735;56.264;43.898;2023-03-21T15:10:03;99991.50;;;3.02;81.13